Terminal Aerodrome Forecast
Issued by NWS Melbourne, FL

Home | Current Version | Previous Version | Text Only | Print | Product List | Glossary On
Versions: 1 2 3 4 5 6 7 8 9 10 11 12 13
768
FTUS42 KMLB 302320
TAFDAB
TAF
KDAB 302320Z 3100/3124 11005KT P6SM FEW040 SCT130 SCT250
     FM310100 17003KT P6SM FEW040 SCT250
     FM311600 10010KT P6SM FEW040 FEW100 SCT250=

USA.gov is the U.S. government's official web portal to all federal, state and local government web resources and services.